createdAt,value
2023-04-21T00:00:11.304Z,3.95
2023-04-21T00:02:43.453Z,4.00
2023-04-21T00:05:14.678Z,4.22
2023-04-21T00:07:45.365Z,3.63
2023-04-21T00:10:14.367Z,3.60
2023-04-21T00:12:43.471Z,4.05
2023-04-21T00:15:13.591Z,4.00
2023-04-21T00:17:42.698Z,3.72
2023-04-21T00:20:12.688Z,3.63
2023-04-21T00:22:41.714Z,3.78
2023-04-21T00:25:12.491Z,4.40
2023-04-21T00:27:41.641Z,4.15
2023-04-21T00:30:11.610Z,3.40
2023-04-21T00:32:40.689Z,4.70
2023-04-21T00:35:10.465Z,3.78
2023-04-21T00:37:39.556Z,3.78
2023-04-21T00:40:09.908Z,3.65
2023-04-21T00:42:40.582Z,3.72
2023-04-21T00:45:10.138Z,3.50
2023-04-21T00:47:39.138Z,3.58
2023-04-21T00:50:08.568Z,3.63
2023-04-21T00:52:40.202Z,3.50
2023-04-21T00:55:10.183Z,3.88
2023-04-21T00:57:41.246Z,3.60
2023-04-21T01:00:11.437Z,3.75
2023-04-21T01:02:42.270Z,3.80
2023-04-21T01:05:12.212Z,3.63
2023-04-21T01:07:41.419Z,3.58
2023-04-21T01:10:11.897Z,3.67
2023-04-21T01:12:49.173Z,3.17
2023-04-21T01:15:19.243Z,3.53
2023-04-21T01:17:48.491Z,3.90
2023-04-21T01:20:17.567Z,4.10
2023-04-21T01:22:48.660Z,4.63
2023-04-21T01:25:19.369Z,4.03
2023-04-21T01:27:48.644Z,4.13
2023-04-21T01:30:17.646Z,3.70
2023-04-21T01:32:46.679Z,3.60
2023-04-21T01:35:15.764Z,3.88
2023-04-21T01:37:46.719Z,4.28
2023-04-21T01:40:15.830Z,3.40
2023-04-21T01:42:45.346Z,3.22
2023-04-21T01:45:14.781Z,4.00
2023-04-21T01:47:43.786Z,3.40
2023-04-21T01:50:12.955Z,3.60
2023-04-21T01:52:43.296Z,3.70
2023-04-21T01:55:14.025Z,4.40
2023-04-21T01:57:43.060Z,3.50
2023-04-21T02:00:13.260Z,3.55
2023-04-21T02:02:42.393Z,3.50
2023-04-21T02:05:11.708Z,3.65
2023-04-21T02:07:40.907Z,3.58
2023-04-21T02:10:11.074Z,3.55
2023-04-21T02:12:41.793Z,3.60
2023-04-21T02:15:11.711Z,3.83
2023-04-21T02:17:40.739Z,3.63
2023-04-21T02:20:12.909Z,3.50
2023-04-21T02:22:42.002Z,3.65
2023-04-21T02:25:11.482Z,3.28
2023-04-21T02:27:42.340Z,3.60
2023-04-21T02:30:12.044Z,4.00
2023-04-21T02:32:41.326Z,3.30
2023-04-21T02:35:11.278Z,3.47
2023-04-21T02:37:40.449Z,3.22
2023-04-21T02:40:10.683Z,3.72
2023-04-21T02:42:41.317Z,3.42
2023-04-21T02:45:12.086Z,3.55
2023-04-21T02:47:41.115Z,3.72
2023-04-21T02:50:10.920Z,5.15
2023-04-21T02:52:39.993Z,3.75
2023-04-21T02:55:09.814Z,3.97
2023-04-21T02:57:40.540Z,3.80
2023-04-21T03:00:13.390Z,3.60
2023-04-21T03:02:43.178Z,3.67
2023-04-21T03:05:13.544Z,3.70
2023-04-21T03:07:42.632Z,3.88
2023-04-21T03:10:11.615Z,3.67
2023-04-21T03:12:42.331Z,4.00
2023-04-21T03:15:12.304Z,3.97
2023-04-21T03:17:41.369Z,4.68
2023-04-21T03:20:12.474Z,4.57
2023-04-21T03:22:41.622Z,4.80
2023-04-21T03:25:11.097Z,4.50
2023-04-21T03:27:41.780Z,4.57
2023-04-21T03:30:11.853Z,4.50
2023-04-21T03:32:40.834Z,5.28
2023-04-21T03:35:10.166Z,5.70
2023-04-21T03:37:39.355Z,5.03
2023-04-21T03:40:09.804Z,4.63
2023-04-21T03:42:39.148Z,5.10
2023-04-21T03:45:11.538Z,5.00
2023-04-21T03:47:40.656Z,4.65
2023-04-21T03:50:10.287Z,4.45
2023-04-21T03:52:39.276Z,4.65
2023-04-21T03:55:12.435Z,5.40
2023-04-21T03:57:42.883Z,5.60
2023-04-21T04:00:14.926Z,5.43
2023-04-21T04:02:44.622Z,5.03
2023-04-21T04:05:13.790Z,6.15
2023-04-21T04:07:42.935Z,5.70
2023-04-21T04:10:12.737Z,5.43
2023-04-21T04:12:41.704Z,5.10
2023-04-21T04:15:12.828Z,4.95
2023-04-21T04:17:41.839Z,5.40
2023-04-21T04:20:11.135Z,5.88
2023-04-21T04:22:40.450Z,5.03
2023-04-21T04:25:10.392Z,4.90
2023-04-21T04:27:39.384Z,5.10
2023-04-21T04:30:09.513Z,5.40
2023-04-21T04:32:42.968Z,5.53
2023-04-21T04:35:13.967Z,4.80
2023-04-21T04:37:43.032Z,4.95
2023-04-21T04:40:16.368Z,4.90
2023-04-21T04:42:47.843Z,5.35
2023-04-21T04:45:17.563Z,5.10
2023-04-21T04:47:48.148Z,5.03
2023-04-21T04:50:17.160Z,5.30
2023-04-21T04:52:47.850Z,5.22
2023-04-21T04:55:16.967Z,4.72
2023-04-21T04:57:46.040Z,4.90
2023-04-21T05:00:15.679Z,5.63
2023-04-21T05:02:44.960Z,4.57
2023-04-21T05:05:15.838Z,6.05
2023-04-21T05:07:44.856Z,5.70
2023-04-21T05:10:13.810Z,5.90
2023-04-21T05:12:43.032Z,5.55
2023-04-21T05:15:12.328Z,5.82
2023-04-21T05:17:41.486Z,5.80
2023-04-21T05:20:11.254Z,5.22
2023-04-21T05:22:42.283Z,4.82
2023-04-21T05:25:16.634Z,5.05
2023-04-21T05:27:45.690Z,4.68
2023-04-21T05:30:14.793Z,4.95
2023-04-21T05:32:43.860Z,4.68
2023-04-21T05:35:12.887Z,5.38
2023-04-21T05:37:43.506Z,4.72
2023-04-21T05:40:12.884Z,4.63
2023-04-21T05:42:42.101Z,4.63
2023-04-21T05:45:11.302Z,4.93
2023-04-21T05:47:40.333Z,4.78
2023-04-21T05:50:09.957Z,4.57
2023-04-21T05:52:38.984Z,4.93
2023-04-21T05:55:10.120Z,4.78
2023-04-21T05:57:39.098Z,5.15
2023-04-21T06:00:09.490Z,5.18
2023-04-21T06:02:38.955Z,5.20
2023-04-21T06:05:08.801Z,5.00
2023-04-21T06:07:38.220Z,4.95
2023-04-21T06:10:10.064Z,4.95
2023-04-21T06:12:39.135Z,4.63
2023-04-21T06:15:09.060Z,4.80
2023-04-21T06:17:38.084Z,4.70
2023-04-21T06:20:09.143Z,5.18
2023-04-21T06:22:38.143Z,5.57
2023-04-21T06:25:09.664Z,5.50
2023-04-21T06:27:38.643Z,4.97
2023-04-21T06:30:08.926Z,5.07
2023-04-21T06:32:38.099Z,5.03
2023-04-21T06:35:07.493Z,5.32
2023-04-21T06:37:36.796Z,4.65
2023-04-21T06:40:06.949Z,4.40
2023-04-21T06:42:37.612Z,4.95
2023-04-21T06:45:08.099Z,4.50
2023-04-21T06:47:37.341Z,4.88
2023-04-21T06:50:07.217Z,4.82
2023-04-21T06:52:36.288Z,4.68
2023-04-21T06:55:05.754Z,4.88
2023-04-21T06:57:34.730Z,4.57
2023-04-21T07:00:06.713Z,5.03
2023-04-21T07:02:35.841Z,4.53
2023-04-21T07:05:05.859Z,4.70
2023-04-21T07:07:35.008Z,4.70
2023-04-21T07:10:03.997Z,4.97
2023-04-21T07:12:33.070Z,5.10
2023-04-21T07:15:02.157Z,4.60
2023-04-21T07:17:32.861Z,4.00
2023-04-21T07:20:02.176Z,4.28
2023-04-21T07:22:31.277Z,4.60
2023-04-21T07:25:00.262Z,4.57
2023-04-21T07:27:29.279Z,4.47
2023-04-21T07:29:58.333Z,4.25
2023-04-21T07:32:27.652Z,4.60
2023-04-21T07:34:58.395Z,4.18
2023-04-21T07:37:28.014Z,4.22
2023-04-21T07:39:57.066Z,4.25
2023-04-21T07:42:27.892Z,4.15
2023-04-21T07:44:58.335Z,4.65
2023-04-21T07:47:27.383Z,4.53
2023-04-21T07:49:58.158Z,4.32
2023-04-21T07:52:27.249Z,4.75
2023-04-21T07:54:56.449Z,4.30
2023-04-21T07:57:26.122Z,4.28
2023-04-21T07:59:55.187Z,4.68
2023-04-21T08:02:24.414Z,4.68
2023-04-21T08:04:53.509Z,4.47
2023-04-21T08:07:24.246Z,4.78
2023-04-21T08:09:53.318Z,4.45
2023-04-21T08:12:22.287Z,4.55
2023-04-21T08:14:51.631Z,4.15
2023-04-21T08:17:20.597Z,4.68
2023-04-21T08:19:49.838Z,4.88
2023-04-21T08:22:18.879Z,4.55
2023-04-21T08:24:49.538Z,4.10
2023-04-21T08:27:18.509Z,4.05
2023-04-21T08:29:47.560Z,4.80
2023-04-21T08:32:16.613Z,4.43
2023-04-21T08:34:46.231Z,4.15
2023-04-21T08:37:15.210Z,4.28
2023-04-21T08:39:44.313Z,4.38
2023-04-21T08:42:16.176Z,4.25
2023-04-21T08:44:45.510Z,3.97
2023-04-21T08:47:15.293Z,3.80
2023-04-21T08:49:47.662Z,4.15
2023-04-21T08:52:16.706Z,3.88
2023-04-21T08:54:45.719Z,3.70
2023-04-21T08:57:17.135Z,4.13
2023-04-21T08:59:47.028Z,4.05
2023-04-21T09:02:17.185Z,3.78
2023-04-21T09:04:47.883Z,4.00
2023-04-21T09:07:34.203Z,4.32
2023-04-21T09:10:04.080Z,4.32
2023-04-21T09:12:34.853Z,4.22
2023-04-21T09:15:07.018Z,4.50
2023-04-21T09:17:37.977Z,4.07
2023-04-21T09:20:16.681Z,4.22
2023-04-21T09:22:46.096Z,4.25
2023-04-21T09:25:18.622Z,4.03
2023-04-21T09:27:49.911Z,4.38
2023-04-21T09:30:21.219Z,4.13
2023-04-21T09:32:50.729Z,3.60
2023-04-21T09:35:19.820Z,4.32
2023-04-21T09:37:48.862Z,4.28
2023-04-21T09:40:20.306Z,4.07
2023-04-21T09:42:51.367Z,3.90
2023-04-21T09:47:57.527Z,4.15
2023-04-21T09:51:07.129Z,3.97
2023-04-21T09:53:17.877Z,4.10
2023-04-21T09:55:51.496Z,4.65
2023-04-21T09:58:25.563Z,4.05
2023-04-21T10:00:58.466Z,4.22
2023-04-21T10:03:29.830Z,3.97
2023-04-21T10:05:59.271Z,4.30
2023-04-21T10:08:28.676Z,4.28
2023-04-21T10:10:58.224Z,4.22
2023-04-21T10:13:29.446Z,4.10
2023-04-21T10:16:09.648Z,4.22
2023-04-21T10:18:39.829Z,4.05
2023-04-21T10:21:10.858Z,4.30
2023-04-21T10:23:40.997Z,3.83
2023-04-21T10:26:15.890Z,4.13
2023-04-21T10:28:54.273Z,4.47
2023-04-21T10:31:30.430Z,4.15
2023-04-21T10:34:19.756Z,4.32
2023-04-21T10:37:13.711Z,4.55
2023-04-21T10:39:49.133Z,3.95
2023-04-21T10:42:28.853Z,4.17
2023-04-21T10:45:11.827Z,4.85
2023-04-21T10:47:44.943Z,4.20
2023-04-21T10:50:19.024Z,4.30
2023-04-21T10:52:54.331Z,4.78
2023-04-21T10:55:23.894Z,4.60
2023-04-21T10:57:52.883Z,4.00
2023-04-21T11:00:25.242Z,4.20
2023-04-21T11:03:01.960Z,4.38
2023-04-21T11:05:35.465Z,4.88
2023-04-21T11:08:06.595Z,4.45
2023-04-21T11:10:55.680Z,4.90
2023-04-21T11:13:26.389Z,4.57
2023-04-21T11:16:06.175Z,4.40
2023-04-21T11:18:43.220Z,4.28
2023-04-21T11:21:16.994Z,4.47
2023-04-21T11:23:56.654Z,4.93
2023-04-21T11:26:33.795Z,4.50
2023-04-21T11:29:04.321Z,4.70
2023-04-21T11:31:35.444Z,4.25
2023-04-21T11:34:08.459Z,4.45
2023-04-21T11:36:38.601Z,4.13
2023-04-21T11:39:09.115Z,4.47
2023-04-21T11:41:40.972Z,4.40
2023-04-21T11:44:10.223Z,4.53
2023-04-21T11:46:47.560Z,4.20
2023-04-21T11:49:19.188Z,4.50
2023-04-21T11:51:51.194Z,5.18
2023-04-21T11:54:22.888Z,5.05
2023-04-21T11:56:53.282Z,4.30
2023-04-21T11:59:30.061Z,4.68
2023-04-21T12:02:00.765Z,4.63
2023-04-21T12:04:31.446Z,4.32
2023-04-21T12:07:03.345Z,4.30
2023-04-21T12:09:32.449Z,4.35
2023-04-21T12:12:05.417Z,3.95
2023-04-21T12:14:36.103Z,4.63
2023-04-21T12:17:08.776Z,4.50
2023-04-21T12:19:40.404Z,4.68
2023-04-21T12:22:10.515Z,4.25
2023-04-21T12:24:40.474Z,3.95
2023-04-21T12:27:10.453Z,4.70
2023-04-21T12:29:39.987Z,4.35
2023-04-21T12:32:11.207Z,5.00
2023-04-21T12:34:40.302Z,4.28
2023-04-21T12:37:09.876Z,4.57
2023-04-21T12:39:38.960Z,4.30
2023-04-21T12:42:08.052Z,4.07
2023-04-21T12:44:37.139Z,4.35
2023-04-21T12:47:06.288Z,3.95
2023-04-21T12:49:37.133Z,4.30
2023-04-21T12:52:06.972Z,4.45
2023-04-21T12:54:36.151Z,4.65
2023-04-21T12:57:05.294Z,4.30
2023-04-21T12:59:34.555Z,4.22
2023-04-21T13:02:03.647Z,4.10
2023-04-21T13:04:33.251Z,4.18
2023-04-21T13:07:04.013Z,4.60
2023-04-21T13:09:33.454Z,4.82
2023-04-21T13:12:02.858Z,4.80
2023-04-21T13:14:31.905Z,5.03
2023-04-21T13:17:01.079Z,4.57
2023-04-21T13:19:30.610Z,4.70
2023-04-21T13:21:59.829Z,4.78
2023-04-21T13:24:31.819Z,4.07
2023-04-21T13:27:02.552Z,4.55
2023-04-21T13:29:34.908Z,4.53
2023-04-21T13:32:04.272Z,4.40
2023-04-21T13:34:33.900Z,4.45
2023-04-21T13:37:03.171Z,4.82
2023-04-21T13:39:34.362Z,4.57
2023-04-21T13:42:03.729Z,4.40
2023-04-21T13:44:32.833Z,4.30
2023-04-21T13:47:02.029Z,4.25
2023-04-21T13:49:31.391Z,4.65
2023-04-21T13:52:00.570Z,4.90
2023-04-21T13:54:29.693Z,5.00
2023-04-21T13:57:00.463Z,4.50
2023-04-21T13:59:29.911Z,4.70
2023-04-21T14:01:59.237Z,4.38
2023-04-21T14:04:28.610Z,4.40
2023-04-21T14:06:57.758Z,5.03
2023-04-21T14:09:26.985Z,6.07
2023-04-21T14:11:56.942Z,5.38
2023-04-21T14:14:37.980Z,5.22
2023-04-21T14:17:09.059Z,4.97
2023-04-21T14:19:38.195Z,5.45
2023-04-21T14:22:07.155Z,5.28
2023-04-21T14:24:36.186Z,4.55
2023-04-21T14:27:05.467Z,4.97
2023-04-21T14:29:36.291Z,4.82
2023-04-21T14:32:05.554Z,4.25
2023-04-21T14:34:34.587Z,4.90
2023-04-21T14:37:03.879Z,4.45
2023-04-21T14:39:34.003Z,4.13
2023-04-21T14:42:03.433Z,4.47
2023-04-21T14:44:32.388Z,4.28
2023-04-21T14:47:09.718Z,3.97
2023-04-21T14:49:40.102Z,4.00
2023-04-21T14:52:09.238Z,3.70
2023-04-21T14:54:38.244Z,4.20
2023-04-21T14:57:19.736Z,4.10
2023-04-21T14:59:50.822Z,3.63
2023-04-21T15:02:22.354Z,4.15
2023-04-21T15:04:51.826Z,3.70
2023-04-21T15:07:24.407Z,3.70
2023-04-21T15:09:54.328Z,3.58
2023-04-21T15:12:23.407Z,3.20
2023-04-21T15:14:52.578Z,3.58
2023-04-21T15:17:23.307Z,3.30
2023-04-21T15:19:52.465Z,3.55
2023-04-21T15:22:21.770Z,3.50
2023-04-21T15:24:52.399Z,3.10
2023-04-21T15:27:23.348Z,3.50
2023-04-21T15:29:52.594Z,3.20
2023-04-21T15:32:23.282Z,2.70
2023-04-21T15:34:52.334Z,2.60
2023-04-21T15:37:24.971Z,2.90
2023-04-21T15:39:54.677Z,2.58
2023-04-21T15:42:24.406Z,2.75
2023-04-21T15:44:54.486Z,2.40
2023-04-21T15:47:25.455Z,2.90
2023-04-21T15:49:54.811Z,2.90
2023-04-21T15:52:23.883Z,3.00
2023-04-21T15:54:53.059Z,2.92
2023-04-21T15:57:22.242Z,2.90
2023-04-21T15:59:51.262Z,2.75
2023-04-21T16:02:21.021Z,3.17
2023-04-21T16:04:53.134Z,2.95
2023-04-21T16:07:22.431Z,2.95
2023-04-21T16:09:51.893Z,3.70
2023-04-21T16:12:21.099Z,2.90
2023-04-21T16:14:57.707Z,3.20
2023-04-21T16:17:33.631Z,3.25
2023-04-21T16:20:05.900Z,3.05
2023-04-21T16:22:35.179Z,3.17
2023-04-21T16:25:04.381Z,3.33
2023-04-21T16:27:33.676Z,3.08
2023-04-21T16:30:03.475Z,3.22
2023-04-21T16:32:36.194Z,3.10
2023-04-21T16:35:10.870Z,2.95
2023-04-21T16:37:43.531Z,2.78
2023-04-21T16:40:13.219Z,2.90
2023-04-21T16:42:42.890Z,3.10
2023-04-21T16:45:12.741Z,3.17
2023-04-21T16:47:42.883Z,3.20
2023-04-21T16:50:13.980Z,2.90
2023-04-21T16:52:43.045Z,2.70
2023-04-21T16:55:12.109Z,2.70
2023-04-21T16:57:41.323Z,3.20
2023-04-21T17:00:11.472Z,2.75
2023-04-21T17:02:40.568Z,3.00
2023-04-21T17:05:10.653Z,2.85
2023-04-21T17:07:41.593Z,2.80
2023-04-21T17:10:11.100Z,2.97
2023-04-21T17:12:40.153Z,3.50
2023-04-21T17:15:10.273Z,2.83
2023-04-21T17:17:43.355Z,3.10
2023-04-21T17:20:14.454Z,2.70
2023-04-21T17:22:45.165Z,2.97
2023-04-21T17:25:14.394Z,3.33
2023-04-21T17:27:44.187Z,3.83
2023-04-21T17:30:16.442Z,3.20
2023-04-21T17:32:45.974Z,3.40
2023-04-21T17:35:14.989Z,3.03
2023-04-21T17:37:45.897Z,3.03
2023-04-21T17:40:15.056Z,3.40
2023-04-21T17:42:44.134Z,3.15
2023-04-21T17:45:14.500Z,3.22
2023-04-21T17:47:44.120Z,3.30
2023-04-21T17:50:13.870Z,2.90
2023-04-21T17:52:44.572Z,4.50
2023-04-21T17:55:14.077Z,4.25
2023-04-21T17:57:43.114Z,3.90
2023-04-21T18:00:13.639Z,3.30
2023-04-21T18:02:42.876Z,3.67
2023-04-21T18:05:14.440Z,3.38
2023-04-21T18:07:45.300Z,3.90
2023-04-21T18:10:14.332Z,3.17
2023-04-21T18:12:43.441Z,3.78
2023-04-21T18:15:13.072Z,3.22
2023-04-21T18:17:42.316Z,3.20
2023-04-21T18:20:13.263Z,3.72
2023-04-21T18:22:43.691Z,2.92
2023-04-21T18:25:14.546Z,3.30
2023-04-21T18:27:43.820Z,2.90
2023-04-21T18:30:13.149Z,3.22
2023-04-21T18:32:42.268Z,3.40
2023-04-21T18:35:11.755Z,3.35
2023-04-21T18:37:40.734Z,3.22
2023-04-21T18:40:11.485Z,3.58
2023-04-21T18:42:42.667Z,3.25
2023-04-21T18:45:12.525Z,3.45
2023-04-21T18:47:41.609Z,3.40
2023-04-21T18:50:11.478Z,3.53
2023-04-21T18:52:40.539Z,3.40
2023-04-21T18:55:10.342Z,3.30
2023-04-21T18:57:41.074Z,3.10
2023-04-21T19:00:11.117Z,2.78
2023-04-21T19:02:40.533Z,2.58
2023-04-21T19:05:10.586Z,2.90
2023-04-21T19:07:39.630Z,2.80
2023-04-21T19:10:09.966Z,3.00
2023-04-21T19:12:42.640Z,2.80
2023-04-21T19:15:12.706Z,2.53
2023-04-21T19:17:42.027Z,2.83
2023-04-21T19:20:12.195Z,2.60
2023-04-21T19:22:41.313Z,2.92
2023-04-21T19:25:12.793Z,2.78
2023-04-21T19:27:44.754Z,2.97
2023-04-21T19:30:14.519Z,3.03
2023-04-21T19:32:43.575Z,2.78
2023-04-21T19:35:12.574Z,3.33
2023-04-21T19:37:41.955Z,3.20
2023-04-21T19:40:11.798Z,2.50
2023-04-21T19:42:41.958Z,2.80
2023-04-21T19:45:13.208Z,2.70
2023-04-21T19:47:42.241Z,2.83
2023-04-21T19:50:13.701Z,3.00
2023-04-21T19:52:42.751Z,3.25
2023-04-21T19:55:11.864Z,2.95
2023-04-21T19:57:40.918Z,2.70
2023-04-21T20:00:28.779Z,2.72
2023-04-21T20:02:58.177Z,2.65
2023-04-21T20:05:27.266Z,2.47
2023-04-21T20:07:56.381Z,2.90
2023-04-21T20:10:26.248Z,2.60
2023-04-21T20:12:55.256Z,2.78
2023-04-21T20:15:27.823Z,2.70
2023-04-21T20:17:56.961Z,2.47
2023-04-21T20:20:26.236Z,2.70
2023-04-21T20:30:49.461Z,2.78
2023-04-21T20:33:19.003Z,3.05
2023-04-21T20:35:48.161Z,3.22
2023-04-21T20:38:17.224Z,2.95
2023-04-21T20:40:51.119Z,2.67
2023-04-21T20:43:20.165Z,2.65
2023-04-21T20:45:51.531Z,2.95
2023-04-21T20:48:20.507Z,2.63
2023-04-21T20:50:51.349Z,2.78
2023-04-21T20:53:20.703Z,2.72
2023-04-21T20:55:49.773Z,2.95
2023-04-21T20:58:19.106Z,2.95
2023-04-21T21:00:49.829Z,2.88
2023-04-21T21:03:21.040Z,2.80
2023-04-21T21:05:50.302Z,3.00
2023-04-21T21:08:19.743Z,3.20
2023-04-21T21:10:48.817Z,3.10
2023-04-21T21:13:17.893Z,2.90
2023-04-21T21:15:47.580Z,3.25
2023-04-21T21:18:21.110Z,2.80
2023-04-21T21:20:50.045Z,2.80
2023-04-21T21:23:21.004Z,3.00
2023-04-21T21:25:51.419Z,2.40
2023-04-21T21:28:20.614Z,2.90
2023-04-21T21:30:49.592Z,2.97
2023-04-21T21:33:20.310Z,3.17
2023-04-21T21:35:49.422Z,3.13
2023-04-21T21:38:18.470Z,2.80
2023-04-21T21:40:47.830Z,2.90
2023-04-21T21:43:17.420Z,2.88
2023-04-21T21:45:46.674Z,2.75
2023-04-21T21:48:17.559Z,3.05
2023-04-21T21:50:48.243Z,3.08
2023-04-21T21:53:17.274Z,3.85
2023-04-21T21:55:46.526Z,2.63
2023-04-21T21:58:15.745Z,2.90
2023-04-21T22:00:44.817Z,4.22
2023-04-21T22:03:13.847Z,3.15
2023-04-21T22:05:42.903Z,2.90
2023-04-21T22:08:13.912Z,3.00
2023-04-21T22:10:43.263Z,3.38
2023-04-21T22:13:12.853Z,3.20
2023-04-21T22:15:42.357Z,2.80
2023-04-21T22:18:12.163Z,2.58
2023-04-21T22:20:41.707Z,2.70
2023-04-21T22:23:11.056Z,3.03
2023-04-21T22:25:41.713Z,3.17
2023-04-21T22:28:10.766Z,3.20
2023-04-21T22:30:40.079Z,2.70
2023-04-21T22:33:09.164Z,3.00
2023-04-21T22:35:38.166Z,2.60
2023-04-21T22:38:07.242Z,2.60
2023-04-21T22:40:36.815Z,2.70
2023-04-21T22:43:07.534Z,2.92
2023-04-21T22:45:36.875Z,2.72
2023-04-21T22:48:06.964Z,2.60
2023-04-21T22:50:36.271Z,2.90
2023-04-21T22:53:05.394Z,2.95
2023-04-21T22:55:34.642Z,3.10
2023-04-21T22:58:03.893Z,3.08
2023-04-21T23:00:34.647Z,2.78
2023-04-21T23:03:03.737Z,3.30
2023-04-21T23:05:33.010Z,3.20
2023-04-21T23:08:02.041Z,3.17
2023-04-21T23:10:31.359Z,3.33
2023-04-21T23:13:02.796Z,3.45
2023-04-21T23:15:34.307Z,3.53
2023-04-21T23:18:03.356Z,3.03
2023-04-21T23:20:32.683Z,3.60
2023-04-21T23:23:02.014Z,2.90
2023-04-21T23:25:31.513Z,3.40
2023-04-21T23:28:00.484Z,3.40
2023-04-21T23:30:29.623Z,3.50
2023-04-21T23:33:00.429Z,3.28
2023-04-21T23:35:29.694Z,3.30
2023-04-21T23:37:58.807Z,3.00
2023-04-21T23:40:27.880Z,3.20
2023-04-21T23:42:56.901Z,3.25
2023-04-21T23:45:26.027Z,3.40
2023-04-21T23:47:54.978Z,3.28
2023-04-21T23:50:26.050Z,3.30
2023-04-21T23:52:55.028Z,3.40
2023-04-21T23:55:24.013Z,3.00
2023-04-21T23:57:53.231Z,3.20
